createdAt,value
2018-11-11T00:00:48.162Z,17.20
2018-11-11T00:01:48.123Z,18.40
2018-11-11T00:02:48.119Z,16.70
2018-11-11T00:03:48.118Z,17.50
2018-11-11T00:04:48.115Z,16.40
2018-11-11T00:05:48.140Z,15.70
2018-11-11T00:06:48.112Z,17.20
2018-11-11T00:07:48.106Z,16.70
2018-11-11T00:08:48.099Z,17.00
2018-11-11T00:09:48.096Z,17.20
2018-11-11T00:10:48.119Z,17.80
2018-11-11T00:11:48.087Z,17.80
2018-11-11T00:12:48.083Z,16.60
2018-11-11T00:13:48.079Z,17.70
2018-11-11T00:14:48.079Z,16.00
2018-11-11T00:15:48.102Z,18.70
2018-11-11T00:16:48.071Z,18.20
2018-11-11T00:17:48.070Z,17.30
2018-11-11T00:18:48.065Z,15.90
2018-11-11T00:19:48.063Z,17.40
2018-11-11T00:20:48.083Z,17.60
2018-11-11T00:21:48.114Z,19.40
2018-11-11T00:22:48.051Z,16.60
2018-11-11T00:23:48.043Z,17.50
2018-11-11T00:24:48.040Z,18.40
2018-11-11T00:25:48.063Z,17.00
2018-11-11T00:26:48.031Z,16.40
2018-11-11T00:27:48.033Z,19.70
2018-11-11T00:28:48.083Z,17.80
2018-11-11T00:29:48.025Z,18.80
2018-11-11T00:30:48.050Z,17.80
2018-11-11T00:31:48.015Z,18.20
2018-11-11T00:32:48.025Z,17.00
2018-11-11T00:33:48.009Z,18.40
2018-11-11T00:34:48.029Z,18.80
2018-11-11T00:35:48.000Z,18.40
2018-11-11T00:36:48.005Z,18.70
2018-11-11T00:37:47.993Z,17.30
2018-11-11T00:38:47.988Z,20.30
2018-11-11T00:39:48.010Z,20.60
2018-11-11T00:40:47.982Z,18.20
2018-11-11T00:41:47.972Z,19.30
2018-11-11T00:42:47.974Z,17.80
2018-11-11T00:43:47.969Z,18.50
2018-11-11T00:44:47.994Z,17.90
2018-11-11T00:45:47.965Z,18.20
2018-11-11T00:46:47.961Z,17.50
2018-11-11T00:47:47.958Z,17.70
2018-11-11T00:48:47.952Z,18.00
2018-11-11T00:49:47.975Z,17.70
2018-11-11T00:50:47.948Z,18.70
2018-11-11T00:51:47.940Z,17.30
2018-11-11T00:52:47.940Z,17.70
2018-11-11T00:53:47.944Z,17.80
2018-11-11T00:54:47.954Z,19.00
2018-11-11T00:55:47.931Z,17.90
2018-11-11T00:56:47.921Z,17.70
2018-11-11T00:57:47.914Z,16.70
2018-11-11T00:58:47.918Z,15.20
2018-11-11T00:59:47.936Z,16.60
2018-11-11T01:00:47.910Z,17.90
2018-11-11T01:01:47.908Z,16.60
2018-11-11T01:02:47.905Z,16.80
2018-11-11T01:03:47.898Z,16.50
2018-11-11T01:04:47.914Z,19.60
2018-11-11T01:05:47.898Z,16.60
2018-11-11T01:06:47.876Z,16.10
2018-11-11T01:07:47.881Z,16.50
2018-11-11T01:08:47.878Z,16.70
2018-11-11T01:09:47.906Z,17.70
2018-11-11T01:10:47.874Z,17.80
2018-11-11T01:11:47.865Z,18.90
2018-11-11T01:12:47.865Z,16.30
2018-11-11T01:13:47.862Z,16.20
2018-11-11T01:14:47.889Z,17.50
2018-11-11T01:15:47.854Z,13.80
2018-11-11T01:16:47.849Z,16.40
2018-11-11T01:17:47.845Z,18.40
2018-11-11T01:18:47.842Z,17.50
2018-11-11T01:19:47.865Z,18.00
2018-11-11T01:20:47.836Z,15.90
2018-11-11T01:21:47.832Z,15.10
2018-11-11T01:22:47.827Z,17.10
2018-11-11T01:23:47.830Z,17.40
2018-11-11T01:24:47.846Z,17.60
2018-11-11T01:25:47.815Z,16.80
2018-11-11T01:26:47.817Z,14.70
2018-11-11T01:27:47.807Z,18.10
2018-11-11T01:28:47.824Z,16.40
2018-11-11T01:29:47.831Z,17.40
2018-11-11T01:30:47.799Z,17.80
2018-11-11T01:31:47.794Z,14.80
2018-11-11T01:32:47.786Z,18.20
2018-11-11T01:33:47.792Z,17.20
2018-11-11T01:34:47.815Z,17.00
2018-11-11T01:35:47.780Z,17.00
2018-11-11T01:36:47.780Z,17.40
2018-11-11T01:37:47.774Z,17.00
2018-11-11T01:38:47.772Z,16.30
2018-11-11T01:39:47.820Z,17.00
2018-11-11T01:40:47.764Z,17.70
2018-11-11T01:41:47.759Z,17.30
2018-11-11T01:42:47.750Z,17.00
2018-11-11T01:43:47.753Z,15.70
2018-11-11T01:44:47.779Z,16.80
2018-11-11T01:45:47.748Z,14.50
2018-11-11T01:46:47.747Z,17.60
2018-11-11T01:47:47.739Z,16.80
2018-11-11T01:48:47.735Z,16.00
2018-11-11T01:49:47.760Z,18.30
2018-11-11T01:50:47.725Z,17.90
2018-11-11T01:51:47.728Z,17.50
2018-11-11T01:52:47.720Z,18.50
2018-11-11T01:53:47.745Z,18.10
2018-11-11T01:54:47.716Z,15.90
2018-11-11T01:55:47.712Z,20.30
2018-11-11T01:56:47.708Z,18.00
2018-11-11T01:57:47.744Z,16.40
2018-11-11T01:58:47.725Z,16.80
2018-11-11T01:59:47.697Z,16.60
2018-11-11T02:00:47.693Z,14.90
2018-11-11T02:01:47.694Z,16.00
2018-11-11T02:02:47.697Z,15.40
2018-11-11T02:03:47.712Z,21.90
2018-11-11T02:04:47.676Z,18.80
2018-11-11T02:05:47.677Z,19.30
2018-11-11T02:06:47.672Z,19.70
2018-11-11T02:07:47.672Z,18.00
2018-11-11T02:08:47.688Z,18.90
2018-11-11T02:09:47.704Z,21.90
2018-11-11T02:10:47.658Z,19.90
2018-11-11T02:11:47.653Z,17.40
2018-11-11T02:12:47.650Z,18.80
2018-11-11T02:13:47.677Z,17.90
2018-11-11T02:14:47.641Z,16.20
2018-11-11T02:15:47.637Z,19.20
2018-11-11T02:16:47.637Z,20.00
2018-11-11T02:17:47.633Z,19.60
2018-11-11T02:18:47.657Z,21.50
2018-11-11T02:19:47.630Z,21.00
2018-11-11T02:20:47.621Z,21.20
2018-11-11T02:21:47.722Z,22.30
2018-11-11T02:22:47.613Z,22.50
2018-11-11T02:23:47.637Z,23.20
2018-11-11T02:24:47.605Z,21.70
2018-11-11T02:25:47.602Z,22.20
2018-11-11T02:26:47.600Z,19.10
2018-11-11T02:27:47.655Z,18.00
2018-11-11T02:28:47.614Z,22.60
2018-11-11T02:29:47.591Z,23.10
2018-11-11T02:30:47.587Z,20.70
2018-11-11T02:31:47.582Z,21.80
2018-11-11T02:32:47.587Z,21.50
2018-11-11T02:33:47.602Z,20.90
2018-11-11T02:34:47.570Z,21.50
2018-11-11T02:35:47.569Z,20.50
2018-11-11T02:36:47.567Z,20.30
2018-11-11T02:37:47.562Z,19.90
2018-11-11T02:38:47.587Z,21.70
2018-11-11T02:39:47.551Z,19.80
2018-11-11T02:40:47.548Z,22.50
2018-11-11T02:41:47.544Z,20.50
2018-11-11T02:42:47.556Z,20.60
2018-11-11T02:43:47.563Z,20.10
2018-11-11T02:44:47.563Z,21.10
2018-11-11T02:45:47.530Z,23.60
2018-11-11T02:46:47.531Z,21.60
2018-11-11T02:47:47.524Z,21.70
2018-11-11T02:48:47.519Z,21.80
2018-11-11T02:49:47.546Z,21.30
2018-11-11T02:50:47.514Z,21.00
2018-11-11T02:51:47.504Z,20.20
2018-11-11T02:52:47.502Z,19.10
2018-11-11T02:53:47.533Z,19.90
2018-11-11T02:54:47.499Z,23.80
2018-11-11T02:55:47.530Z,16.50
2018-11-11T02:56:47.492Z,20.30
2018-11-11T02:57:47.488Z,23.30
2018-11-11T02:58:47.483Z,23.90
2018-11-11T02:59:47.510Z,22.30
2018-11-11T03:00:47.476Z,17.70
2018-11-11T03:01:47.472Z,25.50
2018-11-11T03:02:47.470Z,22.90
2018-11-11T03:03:47.464Z,20.50
2018-11-11T03:04:47.590Z,22.80
2018-11-11T03:05:47.455Z,22.50
2018-11-11T03:06:47.448Z,19.30
2018-11-11T03:07:47.451Z,24.40
2018-11-11T03:08:47.492Z,27.30
2018-11-11T03:09:47.439Z,25.80
2018-11-11T03:10:47.469Z,24.20
2018-11-11T03:11:47.429Z,37.50
2018-11-11T03:12:47.431Z,166.10
2018-11-11T03:13:47.424Z,31.60
2018-11-11T03:14:47.421Z,73.40
2018-11-11T03:15:47.440Z,24.20
2018-11-11T03:16:47.411Z,28.90
2018-11-11T03:17:47.409Z,22.40
2018-11-11T03:18:47.400Z,24.60
2018-11-11T03:19:47.400Z,22.80
2018-11-11T03:20:47.430Z,24.30
2018-11-11T03:21:47.391Z,21.00
2018-11-11T03:22:47.387Z,21.70
2018-11-11T03:23:47.383Z,23.00
2018-11-11T03:24:47.381Z,19.60
2018-11-11T03:25:47.409Z,18.60
2018-11-11T03:26:47.372Z,19.50
2018-11-11T03:27:47.367Z,20.60
2018-11-11T03:28:47.371Z,17.80
2018-11-11T03:29:47.362Z,18.90
2018-11-11T03:30:47.388Z,22.00
2018-11-11T03:31:47.353Z,15.60
2018-11-11T03:32:47.361Z,20.90
2018-11-11T03:33:47.341Z,22.60
2018-11-11T03:34:47.343Z,19.20
2018-11-11T03:35:47.368Z,18.30
2018-11-11T03:36:47.342Z,19.70
2018-11-11T03:37:47.330Z,17.30
2018-11-11T03:38:47.327Z,22.50
2018-11-11T03:39:47.322Z,15.90
2018-11-11T03:40:47.349Z,22.90
2018-11-11T03:41:47.313Z,20.90
2018-11-11T03:42:47.320Z,19.00
2018-11-11T03:43:47.301Z,18.80
2018-11-11T03:44:47.300Z,20.10
2018-11-11T03:45:47.330Z,22.10
2018-11-11T03:46:47.292Z,24.10
2018-11-11T03:47:47.291Z,23.10
2018-11-11T03:48:47.282Z,23.80
2018-11-11T03:49:47.287Z,22.90
2018-11-11T03:50:47.305Z,20.00
2018-11-11T03:51:47.273Z,20.00
2018-11-11T03:52:47.268Z,24.90
2018-11-11T03:53:47.265Z,10.50
2018-11-11T03:54:47.261Z,16.80
2018-11-11T03:55:47.285Z,24.20
2018-11-11T03:56:47.253Z,26.10
2018-11-11T03:57:47.250Z,24.20
2018-11-11T03:58:47.280Z,22.90
2018-11-11T03:59:47.242Z,25.70
2018-11-11T04:00:47.264Z,25.10
2018-11-11T04:01:47.235Z,24.60
2018-11-11T04:02:47.225Z,28.80
2018-11-11T04:03:47.221Z,24.30
2018-11-11T04:04:47.222Z,25.80
2018-11-11T04:05:47.245Z,24.40
2018-11-11T04:06:47.215Z,23.10
2018-11-11T04:07:47.211Z,20.50
2018-11-11T04:08:47.207Z,24.20
2018-11-11T04:09:47.201Z,20.40
2018-11-11T04:10:47.229Z,24.00
2018-11-11T04:11:47.197Z,24.30
2018-11-11T04:12:47.198Z,23.10
2018-11-11T04:13:47.185Z,27.20
2018-11-11T04:14:47.183Z,24.60
2018-11-11T04:15:47.211Z,18.30
2018-11-11T04:16:47.176Z,25.20
2018-11-11T04:17:47.172Z,24.50
2018-11-11T04:18:47.166Z,24.90
2018-11-11T04:19:47.198Z,23.00
2018-11-11T04:20:47.186Z,23.90
2018-11-11T04:21:47.158Z,26.60
2018-11-11T04:22:47.154Z,25.80
2018-11-11T04:23:47.146Z,23.80
2018-11-11T04:24:48.820Z,25.60
2018-11-11T04:25:47.162Z,25.90
2018-11-11T04:26:47.139Z,27.00
2018-11-11T04:27:47.130Z,20.60
2018-11-11T04:28:47.127Z,29.30
2018-11-11T04:29:47.126Z,25.00
2018-11-11T04:30:47.151Z,26.10
2018-11-11T04:31:47.121Z,25.20
2018-11-11T04:32:47.120Z,22.50
2018-11-11T04:33:47.110Z,27.70
2018-11-11T04:34:47.103Z,24.90
2018-11-11T04:35:47.132Z,26.70
2018-11-11T04:36:47.100Z,31.30
2018-11-11T04:37:47.091Z,27.50
2018-11-11T04:38:47.089Z,27.30
2018-11-11T04:39:47.115Z,28.40
2018-11-11T04:40:47.079Z,29.70
2018-11-11T04:41:47.083Z,26.60
2018-11-11T04:42:47.075Z,25.90
2018-11-11T04:43:47.071Z,30.30
2018-11-11T04:44:47.095Z,29.40
2018-11-11T04:45:47.060Z,24.70
2018-11-11T04:46:47.058Z,24.60
2018-11-11T04:47:47.053Z,28.50
2018-11-11T04:48:47.052Z,31.40
2018-11-11T04:49:47.073Z,25.70
2018-11-11T04:50:47.043Z,23.20
2018-11-11T04:51:47.037Z,24.20
2018-11-11T04:52:47.037Z,27.50
2018-11-11T04:53:47.032Z,27.10
2018-11-11T04:54:47.059Z,22.70
2018-11-11T04:55:47.023Z,28.70
2018-11-11T04:56:47.019Z,25.50
2018-11-11T04:57:47.012Z,24.40
2018-11-11T04:58:47.013Z,27.10
2018-11-11T04:59:47.045Z,26.40
2018-11-11T05:00:47.004Z,25.00
2018-11-11T05:01:47.001Z,27.80
2018-11-11T05:02:46.993Z,19.10
2018-11-11T05:03:46.995Z,22.50
2018-11-11T05:04:47.119Z,26.20
2018-11-11T05:05:46.986Z,22.90
2018-11-11T05:06:46.985Z,28.30
2018-11-11T05:07:46.972Z,25.50
2018-11-11T05:08:46.975Z,26.30
2018-11-11T05:09:46.996Z,25.30
2018-11-11T05:10:46.964Z,21.50
2018-11-11T05:11:46.960Z,26.50
2018-11-11T05:12:46.952Z,24.50
2018-11-11T05:13:46.950Z,20.10
2018-11-11T05:14:46.976Z,22.10
2018-11-11T05:15:46.945Z,24.40
2018-11-11T05:16:46.941Z,23.80
2018-11-11T05:17:46.934Z,24.90
2018-11-11T05:18:46.932Z,18.90
2018-11-11T05:19:46.956Z,24.50
2018-11-11T05:20:46.925Z,21.00
2018-11-11T05:21:46.989Z,26.20
2018-11-11T05:22:46.913Z,22.50
2018-11-11T05:23:46.920Z,22.00
2018-11-11T05:24:46.937Z,25.00
2018-11-11T05:25:46.932Z,21.40
2018-11-11T05:26:46.900Z,25.70
2018-11-11T05:27:46.899Z,26.80
2018-11-11T05:28:46.892Z,25.20
2018-11-11T05:29:46.892Z,22.70
2018-11-11T05:30:46.915Z,23.40
2018-11-11T05:31:46.880Z,27.80
2018-11-11T05:32:46.876Z,27.80
2018-11-11T05:33:46.873Z,20.10
2018-11-11T05:34:46.868Z,21.90
2018-11-11T05:35:46.893Z,23.70
2018-11-11T05:36:46.861Z,20.50
2018-11-11T05:37:46.857Z,25.60
2018-11-11T05:38:46.852Z,25.00
2018-11-11T05:39:46.851Z,24.90
2018-11-11T05:40:46.878Z,23.50
2018-11-11T05:41:46.841Z,17.10
2018-11-11T05:42:46.837Z,24.20
2018-11-11T05:43:46.834Z,23.50
2018-11-11T05:44:46.828Z,24.50
2018-11-11T05:45:46.857Z,23.00
2018-11-11T05:46:46.821Z,20.60
2018-11-11T05:47:46.817Z,23.50
2018-11-11T05:48:46.812Z,27.90
2018-11-11T05:49:46.808Z,27.50
2018-11-11T05:50:46.838Z,25.20
2018-11-11T05:51:46.807Z,25.40
2018-11-11T05:52:46.810Z,28.50
2018-11-11T05:53:46.796Z,26.90
2018-11-11T05:54:46.789Z,23.90
2018-11-11T05:55:46.817Z,25.40
2018-11-11T05:56:46.788Z,24.80
2018-11-11T05:57:46.782Z,24.70
2018-11-11T05:58:46.777Z,25.70
2018-11-11T05:59:46.774Z,26.50
2018-11-11T06:00:46.797Z,25.20
2018-11-11T06:01:46.764Z,27.00
2018-11-11T06:02:46.760Z,25.50
2018-11-11T06:03:46.758Z,21.50
2018-11-11T06:04:46.752Z,20.40
2018-11-11T06:05:46.751Z,24.50
2018-11-11T06:06:46.779Z,21.40
2018-11-11T06:07:46.743Z,21.70
2018-11-11T06:08:46.738Z,18.30
2018-11-11T06:09:46.738Z,18.70
2018-11-11T06:10:46.761Z,22.80
2018-11-11T06:11:46.727Z,18.30
2018-11-11T06:12:46.721Z,20.60
2018-11-11T06:13:46.718Z,23.80
2018-11-11T06:14:46.718Z,19.20
2018-11-11T06:15:46.744Z,23.20
2018-11-11T06:16:46.738Z,20.90
2018-11-11T06:17:46.705Z,19.60
2018-11-11T06:18:46.708Z,22.10
2018-11-11T06:19:46.698Z,19.60
2018-11-11T06:20:46.697Z,21.50
2018-11-11T06:21:46.722Z,18.60
2018-11-11T06:22:46.686Z,23.00
2018-11-11T06:23:46.681Z,17.10
2018-11-11T06:24:46.673Z,23.30
2018-11-11T06:25:46.676Z,23.00
2018-11-11T06:26:46.702Z,20.60
2018-11-11T06:27:46.667Z,19.00
2018-11-11T06:28:46.662Z,19.50
2018-11-11T06:29:46.658Z,17.30
2018-11-11T06:30:46.658Z,23.10
2018-11-11T06:31:46.684Z,17.90
2018-11-11T06:32:46.726Z,12.90
2018-11-11T06:33:47.547Z,16.50
2018-11-11T06:34:47.317Z,16.20
2018-11-11T06:35:47.564Z,20.90
2018-11-11T06:36:46.673Z,12.10
2018-11-11T06:37:48.464Z,12.70
2018-11-11T06:38:46.897Z,15.00
2018-11-11T06:39:46.623Z,15.70
2018-11-11T06:40:46.622Z,20.60
2018-11-11T06:41:46.643Z,19.20
2018-11-11T06:42:47.991Z,18.80
2018-11-11T06:43:49.044Z,15.40
2018-11-11T06:44:46.791Z,17.00
2018-11-11T06:45:48.233Z,21.20
2018-11-11T06:46:46.731Z,18.50
2018-11-11T06:47:49.194Z,22.20
2018-11-11T06:48:46.587Z,24.20
2018-11-11T06:49:46.583Z,18.10
2018-11-11T06:50:46.699Z,21.60
2018-11-11T06:51:46.603Z,22.80
2018-11-11T06:52:46.572Z,21.10
2018-11-11T06:53:46.566Z,18.90
2018-11-11T06:54:46.751Z,20.60
2018-11-11T06:55:46.566Z,19.30
2018-11-11T06:56:46.583Z,20.30
2018-11-11T06:57:47.554Z,19.90
2018-11-11T06:58:46.548Z,21.70
2018-11-11T06:59:46.542Z,20.90
2018-11-11T07:00:46.613Z,20.50
2018-11-11T07:01:46.563Z,23.70
2018-11-11T07:02:46.533Z,22.00
2018-11-11T07:03:46.527Z,23.10
2018-11-11T07:04:46.531Z,22.90
2018-11-11T07:05:46.551Z,22.00
2018-11-11T07:06:46.549Z,22.80
2018-11-11T07:07:47.545Z,22.30
2018-11-11T07:08:48.055Z,22.80
2018-11-11T07:09:50.544Z,20.50
2018-11-11T07:10:46.505Z,20.80
2018-11-11T07:11:46.532Z,21.40
2018-11-11T07:12:46.496Z,21.20
2018-11-11T07:13:50.115Z,23.90
2018-11-11T07:14:53.181Z,18.20
2018-11-11T07:15:47.598Z,19.10
2018-11-11T07:16:47.723Z,19.90
2018-11-11T07:17:47.634Z,21.90
2018-11-11T07:18:47.059Z,22.00
2018-11-11T07:19:49.063Z,22.20
2018-11-11T07:20:48.082Z,22.70
2018-11-11T07:21:48.273Z,24.80
2018-11-11T07:22:46.466Z,21.80
2018-11-11T07:23:46.533Z,20.40
2018-11-11T07:24:46.467Z,22.00
2018-11-11T07:25:46.458Z,23.30
2018-11-11T07:26:46.490Z,23.10
2018-11-11T07:27:46.456Z,22.40
2018-11-11T07:28:46.451Z,20.40
2018-11-11T07:29:46.441Z,18.60
2018-11-11T07:30:46.439Z,20.50
2018-11-11T07:31:46.472Z,17.70
2018-11-11T07:32:46.439Z,16.20
2018-11-11T07:33:46.435Z,16.30
2018-11-11T07:34:46.440Z,16.70
2018-11-11T07:35:46.450Z,15.80
2018-11-11T07:36:46.472Z,16.10
2018-11-11T07:37:46.432Z,14.10
2018-11-11T07:38:46.434Z,17.20
2018-11-11T07:39:46.437Z,16.10
2018-11-11T07:40:46.433Z,16.00
2018-11-11T07:41:46.465Z,15.70
2018-11-11T07:42:46.426Z,15.90
2018-11-11T07:43:46.428Z,15.10
2018-11-11T07:44:46.430Z,15.60
2018-11-11T07:45:46.438Z,15.60
2018-11-11T07:46:46.459Z,14.00
2018-11-11T07:47:46.470Z,16.30
2018-11-11T07:48:46.445Z,18.30
2018-11-11T07:49:46.436Z,17.20
2018-11-11T07:50:46.439Z,16.70
2018-11-11T07:51:46.499Z,16.60
2018-11-11T07:52:46.438Z,22.60
2018-11-11T07:53:46.438Z,17.00
2018-11-11T07:54:46.478Z,15.30
2018-11-11T07:55:46.461Z,16.60
2018-11-11T07:56:46.471Z,17.20
2018-11-11T07:57:46.453Z,14.30
2018-11-11T07:58:46.451Z,15.70
2018-11-11T07:59:46.454Z,15.50
2018-11-11T08:00:46.450Z,16.30
2018-11-11T08:01:46.577Z,14.50
2018-11-11T08:02:46.462Z,13.80
2018-11-11T08:03:46.463Z,15.40
2018-11-11T08:04:46.486Z,16.30
2018-11-11T08:05:46.465Z,15.90
2018-11-11T08:06:46.498Z,16.80
2018-11-11T08:07:46.470Z,16.20
2018-11-11T08:08:46.470Z,18.60
2018-11-11T08:09:46.476Z,15.60
2018-11-11T08:10:46.475Z,15.80
2018-11-11T08:11:46.502Z,17.50
2018-11-11T08:12:46.476Z,14.80
2018-11-11T08:13:46.482Z,18.10
2018-11-11T08:14:46.484Z,17.10
2018-11-11T08:15:46.474Z,16.90
2018-11-11T08:16:46.592Z,16.80
2018-11-11T08:17:46.475Z,15.40
2018-11-11T08:18:46.476Z,17.10
2018-11-11T08:19:46.475Z,19.40
2018-11-11T08:20:46.472Z,19.70
2018-11-11T08:21:46.503Z,21.20
2018-11-11T08:22:46.474Z,22.60
2018-11-11T08:23:46.471Z,18.70
2018-11-11T08:24:46.471Z,17.60
2018-11-11T08:25:46.473Z,18.20
2018-11-11T08:26:46.503Z,16.50
2018-11-11T08:27:46.479Z,14.80
2018-11-11T08:28:46.471Z,18.00
2018-11-11T08:29:46.468Z,24.50
2018-11-11T08:30:46.467Z,30.60
2018-11-11T08:31:46.492Z,19.80
2018-11-11T08:32:46.469Z,16.10
2018-11-11T08:33:46.470Z,18.30
2018-11-11T08:34:46.463Z,20.70
2018-11-11T08:35:46.466Z,22.90
2018-11-11T08:36:46.491Z,17.20
2018-11-11T08:37:46.460Z,23.50
2018-11-11T08:38:46.458Z,16.30
2018-11-11T08:39:46.454Z,19.30
2018-11-11T08:40:46.483Z,16.20
2018-11-11T08:41:46.455Z,17.80
2018-11-11T08:42:46.453Z,22.90
2018-11-11T08:43:46.452Z,14.70
2018-11-11T08:44:46.564Z,15.80
2018-11-11T08:45:46.478Z,21.10
2018-11-11T08:46:46.456Z,17.00
2018-11-11T08:47:46.443Z,19.40
2018-11-11T08:48:46.447Z,18.60
2018-11-11T08:49:46.472Z,17.30
2018-11-11T08:50:46.443Z,10.50
2018-11-11T08:51:46.472Z,15.50
2018-11-11T08:52:46.440Z,11.30
2018-11-11T08:53:46.441Z,14.70
2018-11-11T08:54:46.439Z,11.90
2018-11-11T08:55:46.439Z,14.00
2018-11-11T08:56:46.464Z,14.50
2018-11-11T08:57:46.453Z,12.50
2018-11-11T08:58:46.432Z,13.90
2018-11-11T08:59:46.429Z,12.90
2018-11-11T09:00:46.456Z,13.60
2018-11-11T09:01:46.429Z,14.70
2018-11-11T09:02:46.424Z,15.70
2018-11-11T09:03:46.419Z,12.80
2018-11-11T09:04:46.476Z,12.10
2018-11-11T09:05:46.447Z,14.80
2018-11-11T09:06:46.416Z,12.20
2018-11-11T09:07:46.414Z,10.90
2018-11-11T09:08:47.193Z,13.70
2018-11-11T09:09:46.408Z,15.20
2018-11-11T09:10:46.434Z,16.70
2018-11-11T09:11:46.404Z,15.90
2018-11-11T09:12:46.398Z,18.90
2018-11-11T09:13:46.400Z,19.40
2018-11-11T09:14:46.399Z,19.30
2018-11-11T09:15:46.421Z,13.30
2018-11-11T09:16:46.389Z,16.90
2018-11-11T09:17:46.389Z,23.50
2018-11-11T09:18:46.385Z,10.90
2018-11-11T09:19:46.381Z,10.60
2018-11-11T09:20:46.407Z,16.10
2018-11-11T09:21:46.377Z,19.70
2018-11-11T09:22:46.376Z,15.30
2018-11-11T09:23:46.537Z,14.90
2018-11-11T09:24:46.370Z,22.60
2018-11-11T09:25:46.400Z,21.30
2018-11-11T09:26:46.365Z,21.80
2018-11-11T09:27:46.367Z,20.50
2018-11-11T09:28:46.358Z,18.50
2018-11-11T09:29:46.532Z,16.50
2018-11-11T09:30:46.382Z,18.80
2018-11-11T09:31:46.352Z,31.80
2018-11-11T09:32:46.348Z,29.70
2018-11-11T09:33:46.346Z,47.30
2018-11-11T09:34:46.342Z,28.40
2018-11-11T09:35:46.371Z,21.50
2018-11-11T09:36:46.337Z,24.10
2018-11-11T09:37:46.333Z,19.50
2018-11-11T09:38:46.346Z,15.90
2018-11-11T09:39:46.330Z,16.60
2018-11-11T09:40:46.355Z,14.50
2018-11-11T09:41:46.326Z,22.70
2018-11-11T09:42:46.325Z,17.70
2018-11-11T09:43:46.320Z,19.30
2018-11-11T09:44:46.317Z,17.50
2018-11-11T09:45:46.352Z,15.90
2018-11-11T09:46:46.311Z,15.10
2018-11-11T09:47:46.332Z,14.20
2018-11-11T09:48:46.307Z,16.20
2018-11-11T09:49:46.302Z,13.80
2018-11-11T09:50:46.332Z,17.20
2018-11-11T09:51:46.302Z,17.30
2018-11-11T09:52:46.412Z,18.00
2018-11-11T09:53:46.301Z,16.40
2018-11-11T09:54:46.290Z,17.70
2018-11-11T09:55:46.318Z,19.60
2018-11-11T09:56:46.291Z,18.00
2018-11-11T09:57:46.290Z,18.80
2018-11-11T09:58:46.371Z,13.90
2018-11-11T09:59:46.316Z,14.10
2018-11-11T10:00:46.311Z,14.60
2018-11-11T10:01:46.290Z,15.30
2018-11-11T10:02:46.283Z,12.70
2018-11-11T10:03:46.269Z,13.60
2018-11-11T10:04:46.332Z,13.50
2018-11-11T10:05:46.303Z,12.10
2018-11-11T10:06:46.448Z,13.00
2018-11-11T10:07:46.279Z,12.90
2018-11-11T10:08:46.339Z,12.70
2018-11-11T10:09:46.270Z,12.60
2018-11-11T10:10:46.296Z,10.00
2018-11-11T10:11:46.262Z,12.20
2018-11-11T10:12:46.323Z,12.40
2018-11-11T10:13:46.259Z,12.30
2018-11-11T10:14:46.258Z,14.30
2018-11-11T10:15:46.282Z,15.50
2018-11-11T10:16:46.247Z,14.00
2018-11-11T10:17:46.251Z,11.70
2018-11-11T10:18:46.246Z,16.00
2018-11-11T10:19:46.250Z,13.90
2018-11-11T10:20:46.326Z,13.70
2018-11-11T10:21:46.249Z,14.50
2018-11-11T10:22:46.236Z,12.10
2018-11-11T10:23:46.240Z,13.30
2018-11-11T10:24:46.235Z,11.80
2018-11-11T10:25:46.264Z,13.20
2018-11-11T10:26:46.240Z,14.90
2018-11-11T10:27:46.232Z,13.80
2018-11-11T10:28:46.234Z,14.00
2018-11-11T10:29:46.230Z,11.90
2018-11-11T10:30:46.257Z,14.20
2018-11-11T10:31:46.220Z,13.60
2018-11-11T10:32:46.220Z,14.20
2018-11-11T10:33:46.220Z,12.90
2018-11-11T10:34:46.216Z,15.00
2018-11-11T10:35:46.253Z,14.10
2018-11-11T10:36:46.244Z,15.10
2018-11-11T10:37:46.215Z,14.50
2018-11-11T10:38:46.217Z,13.80
2018-11-11T10:39:46.217Z,12.80
2018-11-11T10:40:46.202Z,12.20
2018-11-11T10:41:46.237Z,12.30
2018-11-11T10:42:46.208Z,14.80
2018-11-11T10:43:46.199Z,12.70
2018-11-11T10:44:46.203Z,11.60
2018-11-11T10:45:46.231Z,9.30
2018-11-11T10:46:46.221Z,9.40
2018-11-11T10:47:46.197Z,9.40
2018-11-11T10:48:46.195Z,7.60
2018-11-11T10:49:46.191Z,6.30
2018-11-11T10:50:46.189Z,5.10
2018-11-11T10:51:46.216Z,9.00
2018-11-11T10:52:46.201Z,7.20
2018-11-11T10:53:46.182Z,7.00
2018-11-11T10:54:46.186Z,7.50
2018-11-11T10:55:46.187Z,7.90
2018-11-11T10:56:46.212Z,6.50
2018-11-11T10:57:46.174Z,7.00
2018-11-11T10:58:46.181Z,8.30
2018-11-11T10:59:46.171Z,7.80
2018-11-11T11:00:46.169Z,8.40
2018-11-11T11:01:46.209Z,6.30
2018-11-11T11:02:47.142Z,8.20
2018-11-11T11:03:46.165Z,6.50
2018-11-11T11:04:46.170Z,6.60
2018-11-11T11:05:46.249Z,7.60
2018-11-11T11:06:46.202Z,6.80
2018-11-11T11:07:46.177Z,7.80
2018-11-11T11:08:46.174Z,5.80
2018-11-11T11:09:46.180Z,6.20
2018-11-11T11:10:46.173Z,7.40
2018-11-11T11:11:46.203Z,7.90
2018-11-11T11:12:46.177Z,9.80
2018-11-11T11:13:46.261Z,6.10
2018-11-11T11:14:47.139Z,4.90
2018-11-11T11:15:46.209Z,6.90
2018-11-11T11:16:46.190Z,5.40
2018-11-11T11:17:46.185Z,6.30
2018-11-11T11:18:46.186Z,6.40
2018-11-11T11:19:46.189Z,5.00
2018-11-11T11:20:46.228Z,6.40
2018-11-11T11:21:46.230Z,4.70
2018-11-11T11:22:46.270Z,4.20
2018-11-11T11:23:46.216Z,4.90
2018-11-11T11:24:46.221Z,4.20
2018-11-11T11:25:46.294Z,5.90
2018-11-11T11:26:46.264Z,4.50
2018-11-11T11:27:46.237Z,4.20
2018-11-11T11:28:46.295Z,4.60
2018-11-11T11:29:46.255Z,4.70
2018-11-11T11:30:46.263Z,4.70
2018-11-11T11:31:46.449Z,3.40
2018-11-11T11:32:46.274Z,3.80
2018-11-11T11:33:46.283Z,5.20
2018-11-11T11:34:46.289Z,4.00
2018-11-11T11:35:46.393Z,4.30
2018-11-11T11:36:46.333Z,4.40
2018-11-11T11:37:46.316Z,5.40
2018-11-11T11:38:46.315Z,4.60
2018-11-11T11:39:46.324Z,4.80
2018-11-11T11:40:46.335Z,5.60
2018-11-11T11:41:46.374Z,5.40
2018-11-11T11:42:46.391Z,5.80
2018-11-11T11:43:46.370Z,5.80
2018-11-11T11:44:46.374Z,5.80
2018-11-11T11:45:46.381Z,5.40
2018-11-11T11:46:46.405Z,6.40
2018-11-11T11:47:46.425Z,6.60
2018-11-11T11:48:46.405Z,7.20
2018-11-11T11:49:46.448Z,7.20
2018-11-11T11:50:46.431Z,8.40
2018-11-11T11:51:46.484Z,7.60
2018-11-11T11:52:46.496Z,6.00
2018-11-11T11:53:46.452Z,5.30
2018-11-11T11:54:46.466Z,6.50
2018-11-11T11:55:46.471Z,5.90
2018-11-11T11:56:46.480Z,7.10
2018-11-11T11:57:46.514Z,7.30
2018-11-11T11:58:46.496Z,5.30
2018-11-11T11:59:46.508Z,6.50
2018-11-11T12:00:46.520Z,6.80
2018-11-11T12:01:46.529Z,6.40
2018-11-11T12:02:46.569Z,7.10
2018-11-11T12:03:46.549Z,5.80
2018-11-11T12:04:46.560Z,6.60
2018-11-11T12:05:46.565Z,7.30
2018-11-11T12:06:46.587Z,6.10
2018-11-11T12:07:46.616Z,6.40
2018-11-11T12:08:46.691Z,6.10
2018-11-11T12:09:46.610Z,5.90
2018-11-11T12:10:46.622Z,6.80
2018-11-11T12:11:46.657Z,6.40
2018-11-11T12:12:46.643Z,5.80
2018-11-11T12:13:46.648Z,5.40
2018-11-11T12:14:46.662Z,5.50
2018-11-11T12:15:46.669Z,6.90
2018-11-11T12:16:46.860Z,8.10
2018-11-11T12:17:46.691Z,5.80
2018-11-11T12:18:46.697Z,5.20
2018-11-11T12:19:46.705Z,4.80
2018-11-11T12:20:46.717Z,5.50
2018-11-11T12:21:46.757Z,5.00
2018-11-11T12:22:46.781Z,5.30
2018-11-11T12:23:46.745Z,5.70
2018-11-11T12:24:46.764Z,5.20
2018-11-11T12:25:46.769Z,4.90
2018-11-11T12:26:46.780Z,3.80
2018-11-11T12:27:46.811Z,4.30
2018-11-11T12:28:46.807Z,4.70
2018-11-11T12:29:46.805Z,4.00
2018-11-11T12:30:46.880Z,3.90
2018-11-11T12:31:46.826Z,4.90
2018-11-11T12:32:46.866Z,5.00
2018-11-11T12:33:46.849Z,4.30
2018-11-11T12:34:46.854Z,3.40
2018-11-11T12:35:46.862Z,5.30
2018-11-11T12:36:46.871Z,4.70
2018-11-11T12:37:46.911Z,4.30
2018-11-11T12:38:46.895Z,4.80
2018-11-11T12:39:47.009Z,4.70
2018-11-11T12:40:46.908Z,4.20
2018-11-11T12:41:46.920Z,4.20
2018-11-11T12:42:46.955Z,4.30
2018-11-11T12:43:46.936Z,3.80
2018-11-11T12:44:47.066Z,3.80
2018-11-11T12:45:46.956Z,3.90
2018-11-11T12:46:46.966Z,3.40
2018-11-11T12:47:46.991Z,3.30
2018-11-11T12:48:47.033Z,4.80
2018-11-11T12:49:46.989Z,3.40
2018-11-11T12:50:46.995Z,4.40
2018-11-11T12:51:46.999Z,3.70
2018-11-11T12:52:47.046Z,4.20
2018-11-11T12:53:47.020Z,3.20
2018-11-11T12:54:47.066Z,4.20
2018-11-11T12:55:47.042Z,3.50
2018-11-11T12:56:47.048Z,3.30